Aransas Pass — WDF5061 — position and weather

sailwx.info

Track history (hours):
 
Tides and Currents Weather Stations Pressure Air Temp Water Temp Dewpoint Dewpoint Depression Visibility Wind Speed Wind Dir Waves Ship Positions

Aransas Pass

Owner: Higman Barge Lines, Inc., Orange, TX. More information available from US FCC via Universal Licensing System and Coast Guard Vessel Documentation Center.

Last reported at 2016-Jul-24 00:26 UTC. Time now 2016-Jul-24 01:05 UTC.
Position N 29°44' W 095°08'.

Length 26 m; draft 3 m.

Type: Towing. MMSI: 367458930.

Date/timePositionNaut miles runAvg speedWind from/ knotsBaromVisibWave heightAir tempDewpointWater temp
2016-Jul-24 00:26N 29°44' W 095°08'0 0.0
2016-Jul-23 23:20N 29°44' W 095°08'0 0.0
2016-Jul-23 21:16N 29°44' W 095°08'0 0.0
2016-Jul-23 20:30N 29°44' W 095°08'0 0.0
2016-Jul-23 12:28N 29°44' W 095°08'0 0.0
2016-Jul-23 06:05N 29°44' W 095°08'0 0.0
2016-Jul-23 02:14N 29°44' W 095°08'0 0.0
2016-Jul-23 01:18N 29°44' W 095°08'0 0.0
2016-Jul-23 00:27N 29°44' W 095°08'0 0.1
2016-Jul-22 19:18N 29°44' W 095°08'3 4.4
2016-Jul-22 18:32N 29°45' W 095°04'3 2.6
2016-Jul-22 17:33N 29°44' W 095°01'0 0.1
2016-Jul-22 16:33N 29°44' W 095°01'0 0.3
2016-Jul-22 15:22N 29°44' W 095°01'4 4.3
2016-Jul-22 14:29N 29°46' W 095°05'2 1.3
2016-Jul-22 13:18N 29°45' W 095°06'3 3.7
2016-Jul-22 12:33N 29°44' W 095°03'2 0.8
2016-Jul-22 10:15N 29°44' W 095°01'0 0.0
2016-Jul-22 09:25N 29°44' W 095°01'0 0.0
2016-Jul-22 08:32N 29°44' W 095°01'0 0.0
2016-Jul-22 07:29N 29°44' W 095°01'0 0.0
2016-Jul-22 06:25N 29°44' W 095°01'0 0.1
2016-Jul-22 04:18N 29°44' W 095°01'0 0.2
2016-Jul-22 03:33N 29°44' W 095°01'0 0.2
2016-Jul-22 02:33N 29°44' W 095°01'0 0.0
2016-Jul-21 19:03N 29°44' W 095°01'0 0.0
2016-Jul-21 10:33N 29°44' W 095°01'0 0.0
2016-Jul-21 09:33N 29°44' W 095°01'0 0.0
2016-Jul-21 08:33N 29°44' W 095°01'0 0.0
2016-Jul-21 07:33N 29°44' W 095°01'0 0.0
2016-Jul-21 06:33N 29°44' W 095°01'0 0.0
2016-Jul-21 05:32N 29°44' W 095°01'0 0.3
2016-Jul-21 04:33N 29°44' W 095°01'0 0.0
2016-Jul-21 03:33N 29°44' W 095°01'0 0.0
2016-Jul-21 02:33N 29°44' W 095°01'0 0.1
2016-Jul-21 01:32N 29°44' W 095°01'1 0.8
2016-Jul-21 00:33N 29°44' W 095°02'4 2.9
2016-Jul-20 23:08N 29°46' W 095°07'0 0.1
2016-Jul-20 22:30N 29°46' W 095°06'1 0.9
2016-Jul-20 21:14N 29°45' W 095°07'0 0.0
2016-Jul-20 20:24N 29°45' W 095°07'0 0.0
2016-Jul-20 19:29N 29°45' W 095°07'0 0.0
2016-Jul-20 18:31N 29°45' W 095°07'0 0.0
2016-Jul-20 16:06N 29°45' W 095°07'0 0.0
2016-Jul-20 12:32N 29°45' W 095°07'0 0.0
2016-Jul-20 11:33N 29°45' W 095°07'0 0.0
2016-Jul-20 10:32N 29°45' W 095°07'0 0.0
2016-Jul-20 09:32N 29°45' W 095°07'0 0.0
2016-Jul-20 08:32N 29°45' W 095°07'0 0.0
2016-Jul-20 07:31N 29°45' W 095°07'0 0.0
2016-Jul-20 06:24N 29°45' W 095°07'0 0.0
2016-Jul-20 05:33N 29°45' W 095°07'0 0.0
2016-Jul-20 04:32N 29°45' W 095°07'0 0.0
2016-Jul-20 03:32N 29°45' W 095°07'0 0.0
2016-Jul-20 02:33N 29°45' W 095°07'0 0.0
2016-Jul-20 01:33N 29°45' W 095°07'0 0.0
2016-Jul-20 00:32N 29°45' W 095°07'0 0.1
2016-Jul-19 20:31N 29°44' W 095°07'0 0.1
2016-Jul-19 18:07N 29°45' W 095°07'0 0.0
2016-Jul-19 02:21N 29°45' W 095°06'  
2016-Jul-16 20:30N 29°45' W 095°11'6 5.3
2016-Jul-16 19:21N 29°45' W 095°04'5 6.4
2016-Jul-16 18:31N 29°41' W 094°59'8 8.3
2016-Jul-16 17:33N 29°34' W 094°55'52 3.6
2016-Jul-16 03:16N 29°49' W 093°58'5 6.2
2016-Jul-16 02:28N 29°54' W 093°55'14 7.6
2016-Jul-16 00:33N 30°03' W 093°42'6 6.3
2016-Jul-15 23:33N 30°04' W 093°35'5 5.4
2016-Jul-15 22:33N 30°04' W 093°29'5 5.5
2016-Jul-15 21:33N 30°04' W 093°23'3 2.9
2016-Jul-15 20:33N 30°05' W 093°20'0 0.1
2016-Jul-15 19:33N 30°05' W 093°20'0 0.2
2016-Jul-15 18:33N 30°05' W 093°20'0 0.2
2016-Jul-15 17:33N 30°05' W 093°20'0 0.0
2016-Jul-15 16:33N 30°05' W 093°20'0 0.0
2016-Jul-15 15:33N 30°05' W 093°20'0 0.0
2016-Jul-15 14:33N 30°05' W 093°20'0 0.3
2016-Jul-15 13:33N 30°05' W 093°20'3 3.1
2016-Jul-15 12:32N 30°04' W 093°16'5 4.7
2016-Jul-15 11:33N 30°00' W 093°14'4 4.4
2016-Jul-15 10:33N 29°57' W 093°10'5 4.7
2016-Jul-15 09:33N 29°56' W 093°05'3 2.6
2016-Jul-15 08:33N 29°56' W 093°02'2 2.3
2016-Jul-15 07:33N 29°56' W 092°59'28 5.5
2016-Jul-15 02:31N 29°54' W 092°27'5 5.2
2016-Jul-15 01:32N 29°51' W 092°22'6 5.7
2016-Jul-15 00:33N 29°49' W 092°16'5 5.2
2016-Jul-14 23:33N 29°47' W 092°11'0 0.0
2016-Jul-14 22:33N 29°47' W 092°11'0 0.2
2016-Jul-14 21:33N 29°47' W 092°11'0 0.0
2016-Jul-14 20:33N 29°47' W 092°11'0 0.2
2016-Jul-14 19:33N 29°47' W 092°10'3 3.0
2016-Jul-14 18:33N 29°47' W 092°07'5 4.8
2016-Jul-14 17:33N 29°49' W 092°02'6 6.3
2016-Jul-14 16:32N 29°51' W 091°55'  
Track history (hours):
 
Tides and Currents Weather Stations Pressure Air Temp Water Temp Dewpoint Dewpoint Depression Visibility Wind Speed Wind Dir Waves Ship Positions

Aransas Pass

Owner: Higman Barge Lines, Inc., Orange, TX. More information available from US FCC via Universal Licensing System and Coast Guard Vessel Documentation Center.

Last reported at 2016-Jul-24 00:26 UTC. Time now 2016-Jul-24 01:05 UTC.
Position N 29°44' W 095°08'.

Length 26 m; draft 3 m.

Type: Towing. MMSI: 367458930.

Date/timePositionNaut miles runAvg speedWind from/ knotsBaromVisibWave heightAir tempDewpointWater temp
2016-Jul-24 00:26N 29°44' W 095°08'0 0.0
2016-Jul-23 23:20N 29°44' W 095°08'0 0.0
2016-Jul-23 21:16N 29°44' W 095°08'0 0.0
2016-Jul-23 20:30N 29°44' W 095°08'0 0.0
2016-Jul-23 12:28N 29°44' W 095°08'0 0.0
2016-Jul-23 06:05N 29°44' W 095°08'0 0.0
2016-Jul-23 02:14N 29°44' W 095°08'0 0.0
2016-Jul-23 01:18N 29°44' W 095°08'0 0.0
2016-Jul-23 00:27N 29°44' W 095°08'0 0.1
2016-Jul-22 19:18N 29°44' W 095°08'3 4.4
2016-Jul-22 18:32N 29°45' W 095°04'3 2.6
2016-Jul-22 17:33N 29°44' W 095°01'0 0.1
2016-Jul-22 16:33N 29°44' W 095°01'0 0.3
2016-Jul-22 15:22N 29°44' W 095°01'4 4.3
2016-Jul-22 14:29N 29°46' W 095°05'2 1.3
2016-Jul-22 13:18N 29°45' W 095°06'3 3.7
2016-Jul-22 12:33N 29°44' W 095°03'2 0.8
2016-Jul-22 10:15N 29°44' W 095°01'0 0.0
2016-Jul-22 09:25N 29°44' W 095°01'0 0.0
2016-Jul-22 08:32N 29°44' W 095°01'0 0.0
2016-Jul-22 07:29N 29°44' W 095°01'0 0.0
2016-Jul-22 06:25N 29°44' W 095°01'0 0.1
2016-Jul-22 04:18N 29°44' W 095°01'0 0.2
2016-Jul-22 03:33N 29°44' W 095°01'0 0.2
2016-Jul-22 02:33N 29°44' W 095°01'0 0.0
2016-Jul-21 19:03N 29°44' W 095°01'0 0.0
2016-Jul-21 10:33N 29°44' W 095°01'0 0.0
2016-Jul-21 09:33N 29°44' W 095°01'0 0.0
2016-Jul-21 08:33N 29°44' W 095°01'0 0.0
2016-Jul-21 07:33N 29°44' W 095°01'0 0.0
2016-Jul-21 06:33N 29°44' W 095°01'0 0.0
2016-Jul-21 05:32N 29°44' W 095°01'0 0.3
2016-Jul-21 04:33N 29°44' W 095°01'0 0.0
2016-Jul-21 03:33N 29°44' W 095°01'0 0.0
2016-Jul-21 02:33N 29°44' W 095°01'0 0.1
2016-Jul-21 01:32N 29°44' W 095°01'1 0.8
2016-Jul-21 00:33N 29°44' W 095°02'4 2.9
2016-Jul-20 23:08N 29°46' W 095°07'0 0.1
2016-Jul-20 22:30N 29°46' W 095°06'1 0.9
2016-Jul-20 21:14N 29°45' W 095°07'0 0.0
2016-Jul-20 20:24N 29°45' W 095°07'0 0.0
2016-Jul-20 19:29N 29°45' W 095°07'0 0.0
2016-Jul-20 18:31N 29°45' W 095°07'0 0.0
2016-Jul-20 16:06N 29°45' W 095°07'0 0.0
2016-Jul-20 12:32N 29°45' W 095°07'0 0.0
2016-Jul-20 11:33N 29°45' W 095°07'0 0.0
2016-Jul-20 10:32N 29°45' W 095°07'0 0.0
2016-Jul-20 09:32N 29°45' W 095°07'0 0.0
2016-Jul-20 08:32N 29°45' W 095°07'0 0.0
2016-Jul-20 07:31N 29°45' W 095°07'0 0.0
2016-Jul-20 06:24N 29°45' W 095°07'0 0.0
2016-Jul-20 05:33N 29°45' W 095°07'0 0.0
2016-Jul-20 04:32N 29°45' W 095°07'0 0.0
2016-Jul-20 03:32N 29°45' W 095°07'0 0.0
2016-Jul-20 02:33N 29°45' W 095°07'0 0.0
2016-Jul-20 01:33N 29°45' W 095°07'0 0.0
2016-Jul-20 00:32N 29°45' W 095°07'0 0.1
2016-Jul-19 20:31N 29°44' W 095°07'0 0.1
2016-Jul-19 18:07N 29°45' W 095°07'0 0.0
2016-Jul-19 02:21N 29°45' W 095°06'  
2016-Jul-16 20:30N 29°45' W 095°11'6 5.3
2016-Jul-16 19:21N 29°45' W 095°04'5 6.4
2016-Jul-16 18:31N 29°41' W 094°59'8 8.3
2016-Jul-16 17:33N 29°34' W 094°55'52 3.6
2016-Jul-16 03:16N 29°49' W 093°58'5 6.2
2016-Jul-16 02:28N 29°54' W 093°55'14 7.6
2016-Jul-16 00:33N 30°03' W 093°42'6 6.3
2016-Jul-15 23:33N 30°04' W 093°35'5 5.4
2016-Jul-15 22:33N 30°04' W 093°29'5 5.5
2016-Jul-15 21:33N 30°04' W 093°23'3 2.9
2016-Jul-15 20:33N 30°05' W 093°20'0 0.1
2016-Jul-15 19:33N 30°05' W 093°20'0 0.2
2016-Jul-15 18:33N 30°05' W 093°20'0 0.2
2016-Jul-15 17:33N 30°05' W 093°20'0 0.0
2016-Jul-15 16:33N 30°05' W 093°20'0 0.0
2016-Jul-15 15:33N 30°05' W 093°20'0 0.0
2016-Jul-15 14:33N 30°05' W 093°20'0 0.3
2016-Jul-15 13:33N 30°05' W 093°20'3 3.1
2016-Jul-15 12:32N 30°04' W 093°16'5 4.7
2016-Jul-15 11:33N 30°00' W 093°14'4 4.4
2016-Jul-15 10:33N 29°57' W 093°10'5 4.7
2016-Jul-15 09:33N 29°56' W 093°05'3 2.6
2016-Jul-15 08:33N 29°56' W 093°02'2 2.3
2016-Jul-15 07:33N 29°56' W 092°59'28 5.5
2016-Jul-15 02:31N 29°54' W 092°27'5 5.2
2016-Jul-15 01:32N 29°51' W 092°22'6 5.7
2016-Jul-15 00:33N 29°49' W 092°16'5 5.2
2016-Jul-14 23:33N 29°47' W 092°11'0 0.0
2016-Jul-14 22:33N 29°47' W 092°11'0 0.2
2016-Jul-14 21:33N 29°47' W 092°11'0 0.0
2016-Jul-14 20:33N 29°47' W 092°11'0 0.2
2016-Jul-14 19:33N 29°47' W 092°10'3 3.0
2016-Jul-14 18:33N 29°47' W 092°07'5 4.8
2016-Jul-14 17:33N 29°49' W 092°02'6 6.3
2016-Jul-14 16:32N 29°51' W 091°55'  

Dump ship's entire track history